Fairwood, Washington
Current Conditions -  °F | °C
As of 3:10 PM on Tuesday 25 Nov 2014 (Local Time) from KRNT Reporting Station
Light Rain Light Rain  
Wind Chill: 47°   Ceiling: 600
Heat Index: 49°   Visibility: 3mi
Dew Point: 49°   Wind: 5mph
Humidity: 100%   Direction: 350°N
Pressure: 30.18"   Gusts: NA
Location:  47.4414°N, 122.121°W
Report Text: KRNT 252310Z 35004KT 3SM -RA BR OVC006 09/09 A3018 RMK AO2 P0001 T00940094
Loading
Personal Weather Stations






























Interactive Weather Map New forecast layout! Learn more

10-Day Weather Forecast

Advertisements
Track Severe Weather on mobile